KHXD

Hilton Head Airport

Airport
ICAO code
KHXD
IATA Code
HHH
Summary
ICAO Region
NAM
ICAO Territory
Location

Hilton Head Island, South Carolina

Serving
Hilton Head Island
Elevation
19 ft
Coordinates
32° 13' 27" N , 80° 41' 50" W
KCC
Metar
KHXD 151350Z VRB04KT 10SM CLR 30/18 A3000

Hilton Head Airport is a public use airport located on Hilton Head Island, in Beaufort County, South Carolina, USA.

Airport map

Aerial View

SKYbrary Partners:

Safety knowledge contributed by: